Alford, Indiana
Current Conditions -  °F | °C
As of 7:15 AM on Saturday 25 Oct 2014 (Local Time) from KDCY Reporting Station
Overcast Overcast  
Wind Chill: 58°   Ceiling: 5000
Heat Index: 58°   Visibility: 10mi
Dew Point: 55°   Wind: 6mph
Humidity: 89%   Direction: 230°SW
Pressure: 29.99"   Gusts: NA
Location:  38.4723°N, 87.3105°W
Report Text: KDCY 251215Z AUTO 23005KT 10SM SCT038 OVC050 15/13 A2999 RMK AO2 T01450127
Loading
Personal Weather Stations






























Interactive Weather Map
Tropical Storm Tracking
New forecast layout! Learn more

10-Day Weather Forecast

Advertisements
Track Severe Weather on mobile